Huntington Woods, Michigan
Current Conditions -  °F | °C
As of 3:35 AM on Saturday 29 Nov 2014 (Local Time) from KVLL Reporting Station
Overcast Overcast  
Wind Chill: 28°   Ceiling: 6500
Heat Index: 32°   Visibility: 10mi
Dew Point: 26°   Wind: 5mph
Humidity: 76%   Direction: 160°SSE
Pressure: 30.04"   Gusts: NA
Location:  42.49°N, 83.17°W
Report Text: KVLL 290835Z AUTO 16004KT 10SM SCT031 OVC065 00/M03 A3004 RMK AO2 T00021035
Loading
Personal Weather Stations






























Interactive Weather Map New forecast layout! Learn more

10-Day Weather Forecast

Advertisements
Track Severe Weather on mobile